createdAt,value
2023-04-14T00:00:02.201Z,99393.39
2023-04-14T00:00:38.390Z,99395.02
2023-04-14T00:01:04.765Z,99392.70
2023-04-14T00:01:28.886Z,99395.34
2023-04-14T00:01:52.486Z,99392.20
2023-04-14T00:02:16.013Z,99395.06
2023-04-14T00:02:39.676Z,99394.23
2023-04-14T00:03:03.665Z,99396.23
2023-04-14T00:03:28.094Z,99395.40
2023-04-14T00:03:52.185Z,99398.80
2023-04-14T00:04:16.134Z,99396.61
2023-04-14T00:04:39.583Z,99397.76
2023-04-14T00:05:04.378Z,99399.98
2023-04-14T00:05:31.059Z,99401.78
2023-04-14T00:05:57.973Z,99397.79
2023-04-14T00:06:21.321Z,99401.41
2023-04-14T00:06:45.528Z,99396.06
2023-04-14T00:07:10.383Z,99400.33
2023-04-14T00:07:33.699Z,99397.68
2023-04-14T00:07:57.938Z,99395.45
2023-04-14T00:08:21.761Z,99397.55
2023-04-14T00:08:45.701Z,99398.52
2023-04-14T00:09:09.054Z,99400.08
2023-04-14T00:09:32.134Z,99396.23
2023-04-14T00:09:55.757Z,99395.09
2023-04-14T00:10:19.107Z,99394.79
2023-04-14T00:10:42.191Z,99396.65
2023-04-14T00:11:05.611Z,99396.55
2023-04-14T00:11:28.824Z,99399.32
2023-04-14T00:11:52.351Z,99399.34
2023-04-14T00:12:15.669Z,99397.96
2023-04-14T00:12:39.498Z,99398.17
2023-04-14T00:13:02.488Z,99397.06
2023-04-14T00:13:28.191Z,99398.85
2023-04-14T00:13:56.026Z,99397.89
2023-04-14T00:14:22.465Z,99395.20
2023-04-14T00:14:49.390Z,99396.07
2023-04-14T00:15:14.584Z,99394.69
2023-04-14T00:15:37.610Z,99394.77
2023-04-14T00:16:03.643Z,99395.00
2023-04-14T00:16:26.777Z,99394.92
2023-04-14T00:16:50.553Z,99395.80
2023-04-14T00:17:13.829Z,99397.11
2023-04-14T00:17:37.565Z,99394.66
2023-04-14T00:18:01.090Z,99393.36
2023-04-14T00:18:24.573Z,99396.11
2023-04-14T00:18:47.694Z,99396.14
2023-04-14T00:19:11.213Z,99397.38
2023-04-14T00:19:34.341Z,99395.97
2023-04-14T00:19:57.409Z,99392.93
2023-04-14T00:20:20.451Z,99397.25
2023-04-14T00:20:43.570Z,99394.98
2023-04-14T00:21:11.589Z,99394.92
2023-04-14T00:21:34.619Z,99395.73
2023-04-14T00:21:58.122Z,99400.71
2023-04-14T00:22:22.370Z,99397.27
2023-04-14T00:22:45.377Z,99397.47
2023-04-14T00:23:08.693Z,99395.60
2023-04-14T00:23:31.760Z,99399.86
2023-04-14T00:23:56.964Z,99399.41
2023-04-14T00:24:20.370Z,99394.37
2023-04-14T00:24:44.096Z,99394.41
2023-04-14T00:25:08.252Z,99397.44
2023-04-14T00:25:31.476Z,99394.52
2023-04-14T00:25:54.791Z,99396.95
2023-04-14T00:26:18.005Z,99400.40
2023-04-14T00:26:41.222Z,99396.48
2023-04-14T00:27:04.438Z,99398.98
2023-04-14T00:27:28.035Z,99399.66
2023-04-14T00:27:54.765Z,99396.35
2023-04-14T00:28:19.696Z,99395.94
2023-04-14T00:28:55.609Z,99401.02
2023-04-14T00:29:21.277Z,99401.80
2023-04-14T00:29:46.347Z,99401.56
2023-04-14T00:30:11.803Z,99403.05
2023-04-14T00:30:36.345Z,99403.50
2023-04-14T00:31:00.997Z,99401.48
2023-04-14T00:31:25.928Z,99399.52
2023-04-14T00:31:49.064Z,99397.77
2023-04-14T00:32:12.287Z,99401.02
2023-04-14T00:32:35.960Z,99398.98
2023-04-14T00:32:59.078Z,99398.35
2023-04-14T00:33:22.443Z,99401.41
2023-04-14T00:33:45.637Z,99401.33
2023-04-14T00:34:08.787Z,99399.81
2023-04-14T00:34:32.293Z,99398.59
2023-04-14T00:34:57.143Z,99401.60
2023-04-14T00:35:20.061Z,99400.19
2023-04-14T00:35:43.089Z,99399.02
2023-04-14T00:36:06.797Z,99402.19
2023-04-14T00:36:29.952Z,99398.20
2023-04-14T00:36:55.410Z,99395.95
2023-04-14T00:37:19.108Z,99399.02
2023-04-14T00:37:42.220Z,99398.23
2023-04-14T00:38:05.569Z,99398.48
2023-04-14T00:38:28.652Z,99395.55
2023-04-14T00:38:52.175Z,99399.50
2023-04-14T00:39:15.204Z,99400.52
2023-04-14T00:39:38.213Z,99393.73
2023-04-14T00:40:01.394Z,99396.52
2023-04-14T00:40:24.950Z,99397.19
2023-04-14T00:40:48.158Z,99395.19
2023-04-14T00:41:13.086Z,99397.90
2023-04-14T00:41:36.112Z,99399.56
2023-04-14T00:42:01.791Z,99396.58
2023-04-14T00:42:26.344Z,99398.47
2023-04-14T00:42:49.463Z,99402.08
2023-04-14T00:43:12.675Z,99403.92
2023-04-14T00:43:36.089Z,99404.17
2023-04-14T00:43:59.406Z,99401.39
2023-04-14T00:44:23.417Z,99403.44
2023-04-14T00:44:48.294Z,99400.17
2023-04-14T00:45:11.725Z,99400.88
2023-04-14T00:45:41.379Z,99400.57
2023-04-14T00:46:07.224Z,99400.36
2023-04-14T00:46:30.429Z,99403.34
2023-04-14T00:46:54.111Z,99407.31
2023-04-14T00:47:17.631Z,99404.98
2023-04-14T00:47:42.275Z,99402.94
2023-04-14T00:48:05.507Z,99402.11
2023-04-14T00:48:29.411Z,99402.36
2023-04-14T00:48:52.933Z,99404.35
2023-04-14T00:49:17.278Z,99404.38
2023-04-14T00:49:40.631Z,99406.29
2023-04-14T00:50:04.064Z,99403.91
2023-04-14T00:50:27.342Z,99403.48
2023-04-14T00:50:50.655Z,99402.58
2023-04-14T00:51:13.972Z,99405.09
2023-04-14T00:51:37.290Z,99403.24
2023-04-14T00:52:01.106Z,99402.91
2023-04-14T00:52:25.154Z,99403.38
2023-04-14T00:52:49.401Z,99399.58
2023-04-14T00:53:12.916Z,99403.39
2023-04-14T00:53:38.046Z,99400.89
2023-04-14T00:54:03.961Z,99399.92
2023-04-14T00:54:28.195Z,99401.02
2023-04-14T00:54:51.512Z,99400.20
2023-04-14T00:55:15.854Z,99398.89
2023-04-14T00:55:39.578Z,99399.80
2023-04-14T00:56:02.595Z,99400.20
2023-04-14T00:56:29.633Z,99398.31
2023-04-14T00:56:52.838Z,99395.37
2023-04-14T00:57:16.279Z,99397.31
2023-04-14T00:57:40.583Z,99395.98
2023-04-14T00:58:03.890Z,99395.80
2023-04-14T00:58:27.423Z,99396.00
2023-04-14T00:58:52.075Z,99398.97
2023-04-14T00:59:15.807Z,99397.65
2023-04-14T00:59:38.900Z,99396.83
2023-04-14T01:00:02.222Z,99396.50
2023-04-14T01:00:28.506Z,99395.04
2023-04-14T01:00:55.698Z,99395.77
2023-04-14T01:01:20.610Z,99395.16
2023-04-14T01:01:45.087Z,99395.45
2023-04-14T01:02:09.465Z,99396.37
2023-04-14T01:02:34.226Z,99399.11
2023-04-14T01:02:57.750Z,99396.35
2023-04-14T01:03:22.248Z,99397.14
2023-04-14T01:03:46.929Z,99400.42
2023-04-14T01:04:11.628Z,99398.95
2023-04-14T01:04:52.064Z,99398.42
2023-04-14T01:05:17.137Z,99399.81
2023-04-14T01:05:42.382Z,99401.52
2023-04-14T01:06:05.599Z,99397.67
2023-04-14T01:06:32.502Z,99400.55
2023-04-14T01:06:56.840Z,99398.51
2023-04-14T01:07:20.064Z,99401.90
2023-04-14T01:07:43.477Z,99403.15
2023-04-14T01:08:06.699Z,99400.13
2023-04-14T01:08:30.320Z,99401.08
2023-04-14T01:08:53.433Z,99400.94
2023-04-14T01:09:24.526Z,99399.17
2023-04-14T01:09:48.561Z,99400.89
2023-04-14T01:10:11.893Z,99401.91
2023-04-14T01:10:39.099Z,99402.63
2023-04-14T01:11:02.227Z,99401.30
2023-04-14T01:11:37.686Z,99403.83
2023-04-14T01:12:04.075Z,99405.81
2023-04-14T01:12:36.430Z,99403.13
2023-04-14T01:13:02.984Z,99403.50
2023-04-14T01:13:42.663Z,99402.94
2023-04-14T01:14:26.337Z,99403.14
2023-04-14T01:15:16.358Z,99402.55
2023-04-14T01:15:41.248Z,99405.31
2023-04-14T01:16:06.170Z,99403.48
2023-04-14T01:16:30.504Z,99403.84
2023-04-14T01:16:55.454Z,99403.73
2023-04-14T01:17:40.916Z,99407.52
2023-04-14T01:18:19.867Z,99410.95
2023-04-14T01:18:53.999Z,99409.35
2023-04-14T01:19:41.879Z,99406.61
2023-04-14T01:20:11.525Z,99409.45
2023-04-14T01:20:37.900Z,99409.46
2023-04-14T01:21:03.672Z,99408.23
2023-04-14T01:21:28.839Z,99408.61
2023-04-14T01:21:53.586Z,99410.98
2023-04-14T01:22:19.250Z,99408.13
2023-04-14T01:22:44.450Z,99407.89
2023-04-14T01:23:08.368Z,99409.61
2023-04-14T01:23:32.496Z,99409.70
2023-04-14T01:24:02.788Z,99409.41
2023-04-14T01:24:41.209Z,99408.15
2023-04-14T01:25:08.112Z,99408.36
2023-04-14T01:25:31.437Z,99409.95
2023-04-14T01:26:00.396Z,99408.62
2023-04-14T01:26:28.399Z,99404.01
2023-04-14T01:26:54.170Z,99403.98
2023-04-14T01:27:24.344Z,99407.06
2023-04-14T01:28:05.356Z,99410.41
2023-04-14T01:28:37.691Z,99407.86
2023-04-14T01:29:17.046Z,99406.61
2023-04-14T01:29:59.284Z,99406.70
2023-04-14T01:30:33.344Z,99407.30
2023-04-14T01:31:16.031Z,99409.06
2023-04-14T01:31:41.982Z,99407.80
2023-04-14T01:32:06.195Z,99405.34
2023-04-14T01:32:31.858Z,99403.75
2023-04-14T01:32:56.785Z,99403.66
2023-04-14T01:33:21.018Z,99406.77
2023-04-14T01:33:49.502Z,99402.41
2023-04-14T01:34:27.872Z,99405.87
2023-04-14T01:34:54.039Z,99405.05
2023-04-14T01:35:21.553Z,99397.63
2023-04-14T01:35:46.017Z,99401.46
2023-04-14T01:36:12.593Z,99400.70
2023-04-14T01:36:42.857Z,99401.89
2023-04-14T01:37:06.592Z,99400.43
2023-04-14T01:37:30.863Z,99398.52
2023-04-14T01:37:54.757Z,99400.84
2023-04-14T01:38:22.578Z,99396.42
2023-04-14T01:38:45.518Z,99398.64
2023-04-14T01:39:11.667Z,99398.86
2023-04-14T01:39:55.134Z,99398.59
2023-04-14T01:40:19.683Z,99402.48
2023-04-14T01:40:42.582Z,99401.60
2023-04-14T01:41:07.629Z,99400.63
2023-04-14T01:41:30.764Z,99402.25
2023-04-14T01:41:58.290Z,99400.63
2023-04-14T01:42:23.652Z,99401.11
2023-04-14T01:42:52.491Z,99401.33
2023-04-14T01:43:16.821Z,99399.66
2023-04-14T01:43:42.383Z,99399.56
2023-04-14T01:44:05.610Z,99397.77
2023-04-14T01:44:30.878Z,99398.54
2023-04-14T01:44:54.901Z,99399.71
2023-04-14T01:45:20.893Z,99399.69
2023-04-14T01:45:51.087Z,99400.41
2023-04-14T01:46:14.910Z,99400.73
2023-04-14T01:46:38.097Z,99403.45
2023-04-14T01:47:02.641Z,99401.53
2023-04-14T01:47:26.655Z,99402.26
2023-04-14T01:47:49.741Z,99406.02
2023-04-14T01:48:14.134Z,99403.52
2023-04-14T01:48:37.451Z,99403.61
2023-04-14T01:49:02.644Z,99403.52
2023-04-14T01:49:29.027Z,99403.97
2023-04-14T01:49:55.813Z,99399.25
2023-04-14T01:50:19.526Z,99401.09
2023-04-14T01:50:43.528Z,99402.38
2023-04-14T01:51:06.609Z,99401.00
2023-04-14T01:51:32.037Z,99401.46
2023-04-14T01:51:56.078Z,99402.61
2023-04-14T01:52:19.409Z,99402.51
2023-04-14T01:52:47.871Z,99398.42
2023-04-14T01:53:11.753Z,99400.88
2023-04-14T01:53:36.400Z,99398.92
2023-04-14T01:53:59.414Z,99396.49
2023-04-14T01:54:23.490Z,99395.10
2023-04-14T01:54:47.788Z,99398.61
2023-04-14T01:55:14.276Z,99397.70
2023-04-14T01:55:38.217Z,99397.66
2023-04-14T01:56:01.832Z,99397.15
2023-04-14T01:56:26.074Z,99399.38
2023-04-14T01:56:49.417Z,99400.58
2023-04-14T01:57:13.046Z,99398.58
2023-04-14T01:57:36.721Z,99400.50
2023-04-14T01:57:59.906Z,99401.33
2023-04-14T01:58:24.405Z,99402.98
2023-04-14T01:58:48.439Z,99402.63
2023-04-14T01:59:11.869Z,99405.86
2023-04-14T01:59:35.077Z,99404.36
2023-04-14T01:59:58.580Z,99401.29
2023-04-14T02:00:22.129Z,99402.77
2023-04-14T02:00:45.823Z,99403.65
2023-04-14T02:01:09.243Z,99404.88
2023-04-14T02:01:32.574Z,99404.64
2023-04-14T02:01:56.486Z,99401.93
2023-04-14T02:02:20.538Z,99400.20
2023-04-14T02:02:47.111Z,99399.73
2023-04-14T02:03:14.559Z,99400.25
2023-04-14T02:03:40.655Z,99401.29
2023-04-14T02:04:05.003Z,99400.38
2023-04-14T02:04:30.053Z,99403.87
2023-04-14T02:04:54.174Z,99405.20
2023-04-14T02:05:18.726Z,99405.89
2023-04-14T02:05:42.550Z,99403.08
2023-04-14T02:06:06.596Z,99404.46
2023-04-14T02:06:31.881Z,99404.35
2023-04-14T02:06:55.571Z,99402.00
2023-04-14T02:07:18.631Z,99404.22
2023-04-14T02:07:41.799Z,99404.91
2023-04-14T02:08:06.758Z,99409.45
2023-04-14T02:08:29.827Z,99409.21
2023-04-14T02:08:53.090Z,99408.48
2023-04-14T02:09:16.404Z,99409.88
2023-04-14T02:09:39.723Z,99411.95
2023-04-14T02:10:06.642Z,99416.43
2023-04-14T02:10:32.005Z,99410.83
2023-04-14T02:11:01.646Z,99412.86
2023-04-14T02:11:36.224Z,99413.38
2023-04-14T02:12:00.975Z,99414.73
2023-04-14T02:12:24.086Z,99416.84
2023-04-14T02:12:48.635Z,99418.02
2023-04-14T02:13:33.423Z,99419.95
2023-04-14T02:13:57.045Z,99420.43
2023-04-14T02:14:23.131Z,99420.66
2023-04-14T02:14:47.085Z,99418.90
2023-04-14T02:15:13.703Z,99421.20
2023-04-14T02:15:37.616Z,99420.63
2023-04-14T02:16:01.104Z,99419.66
2023-04-14T02:16:24.653Z,99419.09
2023-04-14T02:16:48.217Z,99424.81
2023-04-14T02:17:11.680Z,99426.13
2023-04-14T02:17:34.749Z,99425.13
2023-04-14T02:17:58.670Z,99420.69
2023-04-14T02:18:22.376Z,99422.08
2023-04-14T02:18:47.570Z,99421.24
2023-04-14T02:19:13.614Z,99424.17
2023-04-14T02:19:37.244Z,99425.77
2023-04-14T02:20:00.302Z,99427.45
2023-04-14T02:20:23.845Z,99426.88
2023-04-14T02:21:06.807Z,99425.45
2023-04-14T02:21:29.919Z,99423.27
2023-04-14T02:21:52.944Z,99424.64
2023-04-14T02:22:16.021Z,99423.48
2023-04-14T02:22:39.165Z,99425.55
2023-04-14T02:23:02.398Z,99423.70
2023-04-14T02:23:26.514Z,99426.79
2023-04-14T02:23:50.953Z,99426.55
2023-04-14T02:24:13.993Z,99426.30
2023-04-14T02:24:37.183Z,99427.86
2023-04-14T02:25:01.019Z,99429.48
2023-04-14T02:25:29.749Z,99431.50
2023-04-14T02:25:58.391Z,99433.19
2023-04-14T02:26:24.671Z,99430.27
2023-04-14T02:27:06.639Z,99430.48
2023-04-14T02:27:52.332Z,99430.46
2023-04-14T02:28:16.663Z,99432.81
2023-04-14T02:28:42.114Z,99431.14
2023-04-14T02:29:10.758Z,99434.73
2023-04-14T02:29:33.879Z,99432.05
2023-04-14T02:29:56.916Z,99433.27
2023-04-14T02:30:23.184Z,99432.95
2023-04-14T02:30:48.730Z,99434.38
2023-04-14T02:31:12.510Z,99434.41
2023-04-14T02:31:36.815Z,99434.35
2023-04-14T02:32:06.597Z,99430.88
2023-04-14T02:32:30.142Z,99436.67
2023-04-14T02:32:56.799Z,99435.09
2023-04-14T02:33:20.538Z,99432.69
2023-04-14T02:33:43.730Z,99438.39
2023-04-14T02:34:07.257Z,99433.80
2023-04-14T02:34:33.873Z,99440.67
2023-04-14T02:35:01.599Z,99436.85
2023-04-14T02:35:28.056Z,99437.17
2023-04-14T02:36:10.090Z,99437.20
2023-04-14T02:36:40.387Z,99437.11
2023-04-14T02:37:04.292Z,99438.67
2023-04-14T02:37:28.124Z,99437.98
2023-04-14T02:37:51.959Z,99439.16
2023-04-14T02:38:29.393Z,99439.17
2023-04-14T02:38:58.208Z,99442.55
2023-04-14T02:39:26.250Z,99441.42
2023-04-14T02:39:51.510Z,99443.77
2023-04-14T02:40:16.267Z,99441.69
2023-04-14T02:40:39.696Z,99441.33
2023-04-14T02:41:07.522Z,99443.01
2023-04-14T02:41:33.388Z,99444.57
2023-04-14T02:42:02.537Z,99445.17
2023-04-14T02:42:27.274Z,99450.02
2023-04-14T02:42:51.219Z,99444.54
2023-04-14T02:43:18.128Z,99446.77
2023-04-14T02:43:44.766Z,99446.70
2023-04-14T02:44:10.539Z,99445.69
2023-04-14T02:44:34.825Z,99445.74
2023-04-14T02:45:01.185Z,99445.88
2023-04-14T02:45:27.799Z,99445.08
2023-04-14T02:45:52.360Z,99450.77
2023-04-14T02:46:16.710Z,99447.02
2023-04-14T02:46:41.321Z,99448.63
2023-04-14T02:47:07.037Z,99449.05
2023-04-14T02:47:33.596Z,99447.94
2023-04-14T02:48:03.330Z,99452.22
2023-04-14T02:48:27.796Z,99446.08
2023-04-14T02:48:51.829Z,99451.59
2023-04-14T02:49:15.561Z,99449.97
2023-04-14T02:49:42.760Z,99450.11
2023-04-14T02:50:06.288Z,99446.59
2023-04-14T02:50:30.626Z,99447.77
2023-04-14T02:50:59.179Z,99449.59
2023-04-14T02:51:24.061Z,99450.84
2023-04-14T02:51:47.339Z,99448.89
2023-04-14T02:52:11.367Z,99447.60
2023-04-14T02:52:36.942Z,99444.23
2023-04-14T02:53:01.332Z,99447.89
2023-04-14T02:53:30.118Z,99449.91
2023-04-14T02:54:17.170Z,99448.04
2023-04-14T02:54:43.350Z,99449.40
2023-04-14T02:55:07.967Z,99450.18
2023-04-14T02:55:32.030Z,99446.64
2023-04-14T02:55:55.350Z,99449.51
2023-04-14T02:56:18.872Z,99446.98
2023-04-14T02:56:42.807Z,99449.92
2023-04-14T02:57:07.253Z,99447.20
2023-04-14T02:57:33.339Z,99446.44
2023-04-14T02:57:56.749Z,99445.34
2023-04-14T02:58:20.183Z,99447.46
2023-04-14T02:58:43.286Z,99444.15
2023-04-14T02:59:06.504Z,99447.80
2023-04-14T02:59:30.243Z,99448.96
2023-04-14T02:59:57.549Z,99449.19
2023-04-14T03:00:24.640Z,99449.07
2023-04-14T03:00:48.471Z,99451.16
2023-04-14T03:01:12.019Z,99448.95
2023-04-14T03:01:38.212Z,99447.88
2023-04-14T03:02:04.931Z,99451.56
2023-04-14T03:02:29.660Z,99450.02
2023-04-14T03:03:03.185Z,99445.97
2023-04-14T03:03:28.690Z,99448.75
2023-04-14T03:03:53.572Z,99450.55
2023-04-14T03:04:17.264Z,99451.32
2023-04-14T03:04:42.072Z,99451.11
2023-04-14T03:05:11.417Z,99451.50
2023-04-14T03:05:57.441Z,99453.48
2023-04-14T03:06:20.760Z,99453.80
2023-04-14T03:06:43.788Z,99454.95
2023-04-14T03:07:10.163Z,99456.28
2023-04-14T03:07:33.514Z,99455.52
2023-04-14T03:07:57.513Z,99456.25
2023-04-14T03:08:20.729Z,99457.54
2023-04-14T03:08:46.210Z,99462.30
2023-04-14T03:09:10.535Z,99460.52
2023-04-14T03:09:37.548Z,99457.30
2023-04-14T03:10:06.393Z,99455.77
2023-04-14T03:10:33.390Z,99456.91
2023-04-14T03:10:57.439Z,99457.11
2023-04-14T03:11:21.549Z,99457.90
2023-04-14T03:11:45.402Z,99458.73
2023-04-14T03:12:12.313Z,99457.71
2023-04-14T03:12:37.983Z,99460.12
2023-04-14T03:13:02.090Z,99462.42
2023-04-14T03:13:25.916Z,99454.18
2023-04-14T03:13:50.567Z,99457.50
2023-04-14T03:14:13.607Z,99456.73
2023-04-14T03:14:37.201Z,99453.39
2023-04-14T03:15:01.143Z,99456.38
2023-04-14T03:15:24.961Z,99456.87
2023-04-14T03:15:48.061Z,99453.23
2023-04-14T03:16:11.809Z,99456.36
2023-04-14T03:16:35.501Z,99454.73
2023-04-14T03:16:59.035Z,99457.14
2023-04-14T03:17:24.451Z,99455.59
2023-04-14T03:17:56.089Z,99456.16
2023-04-14T03:18:21.198Z,99455.05
2023-04-14T03:18:45.524Z,99454.34
2023-04-14T03:19:10.580Z,99455.33
2023-04-14T03:19:36.762Z,99454.02
2023-04-14T03:20:00.389Z,99454.53
2023-04-14T03:20:24.055Z,99456.73
2023-04-14T03:20:50.321Z,99455.21
2023-04-14T03:21:14.743Z,99455.69
2023-04-14T03:21:37.961Z,99456.85
2023-04-14T03:22:01.427Z,99453.41
2023-04-14T03:22:28.323Z,99456.63
2023-04-14T03:22:57.836Z,99457.04
2023-04-14T03:23:23.107Z,99457.12
2023-04-14T03:23:53.582Z,99454.69
2023-04-14T03:24:24.373Z,99454.09
2023-04-14T03:24:47.685Z,99456.50
2023-04-14T03:25:12.540Z,99456.73
2023-04-14T03:25:40.144Z,99458.74
2023-04-14T03:26:07.134Z,99459.53
2023-04-14T03:26:31.289Z,99455.28
2023-04-14T03:26:58.870Z,99459.96
2023-04-14T03:27:22.966Z,99458.52
2023-04-14T03:27:46.262Z,99456.09
2023-04-14T03:28:16.162Z,99455.08
2023-04-14T03:28:42.319Z,99457.96
2023-04-14T03:29:06.020Z,99461.42
2023-04-14T03:29:29.645Z,99457.45
2023-04-14T03:29:53.170Z,99450.50
2023-04-14T03:30:18.737Z,99462.10
2023-04-14T03:30:43.899Z,99462.24
2023-04-14T03:31:09.094Z,99458.98
2023-04-14T03:32:00.514Z,99461.55
2023-04-14T03:32:25.284Z,99465.88
2023-04-14T03:32:48.373Z,99466.66
2023-04-14T03:33:12.706Z,99464.23
2023-04-14T03:33:36.016Z,99465.81
2023-04-14T03:34:00.229Z,99466.06
2023-04-14T03:34:28.390Z,99466.29
2023-04-14T03:34:55.286Z,99465.98
2023-04-14T03:35:18.911Z,99468.34
2023-04-14T03:35:42.129Z,99466.30
2023-04-14T03:36:06.162Z,99471.56
2023-04-14T03:36:29.485Z,99470.20
2023-04-14T03:36:54.658Z,99471.98
2023-04-14T03:37:21.047Z,99470.80
2023-04-14T03:37:44.082Z,99472.09
2023-04-14T03:38:10.032Z,99469.39
2023-04-14T03:38:34.259Z,99470.02
2023-04-14T03:39:01.730Z,99477.22
2023-04-14T03:39:28.475Z,99472.63
2023-04-14T03:39:52.397Z,99469.59
2023-04-14T03:40:15.918Z,99470.66
2023-04-14T03:40:41.397Z,99469.83
2023-04-14T03:41:05.722Z,99470.62
2023-04-14T03:41:29.146Z,99477.02
2023-04-14T03:41:52.772Z,99470.10
2023-04-14T03:42:16.919Z,99474.46
2023-04-14T03:42:41.760Z,99470.96
2023-04-14T03:43:05.384Z,99473.63
2023-04-14T03:43:28.499Z,99477.63
2023-04-14T03:43:57.649Z,99476.30
2023-04-14T03:44:23.932Z,99474.11
2023-04-14T03:44:51.752Z,99476.11
2023-04-14T03:45:15.490Z,99477.47
2023-04-14T03:45:43.421Z,99474.26
2023-04-14T03:46:07.282Z,99474.29
2023-04-14T03:46:32.019Z,99477.21
2023-04-14T03:46:56.505Z,99478.70
2023-04-14T03:47:24.679Z,99480.67
2023-04-14T03:47:48.358Z,99480.02
2023-04-14T03:48:12.850Z,99476.41
2023-04-14T03:48:42.965Z,99483.73
2023-04-14T03:49:11.343Z,99486.36
2023-04-14T03:49:38.135Z,99483.62
2023-04-14T03:50:01.947Z,99483.95
2023-04-14T03:50:27.947Z,99485.55
2023-04-14T03:50:51.968Z,99491.41
2023-04-14T03:51:16.013Z,99491.38
2023-04-14T03:51:41.872Z,99490.12
2023-04-14T03:52:06.621Z,99489.19
2023-04-14T03:52:30.041Z,99492.34
2023-04-14T03:52:55.224Z,99493.29
2023-04-14T03:53:18.920Z,99492.20
2023-04-14T03:53:42.290Z,99491.20
2023-04-14T03:54:06.502Z,99490.77
2023-04-14T03:54:30.729Z,99491.75
2023-04-14T03:54:54.890Z,99495.06
2023-04-14T03:55:19.103Z,99494.29
2023-04-14T03:55:44.987Z,99493.66
2023-04-14T03:56:08.302Z,99495.45
2023-04-14T03:56:38.284Z,99499.72
2023-04-14T03:57:06.392Z,99499.69
2023-04-14T03:57:29.711Z,99497.76
2023-04-14T03:57:54.876Z,99498.94
2023-04-14T03:58:18.181Z,99497.13
2023-04-14T03:58:43.068Z,99495.11
2023-04-14T03:59:10.161Z,99498.59
2023-04-14T03:59:35.415Z,99498.59
2023-04-14T03:59:58.936Z,99497.59
2023-04-14T04:00:21.969Z,99498.06
2023-04-14T04:01:00.809Z,99501.45
2023-04-14T04:01:26.164Z,99499.09
2023-04-14T04:01:50.782Z,99500.24
2023-04-14T04:02:14.311Z,99496.60
2023-04-14T04:02:38.731Z,99501.77
2023-04-14T04:03:02.926Z,99498.50
2023-04-14T04:03:26.753Z,99502.10
2023-04-14T04:03:50.127Z,99501.59
2023-04-14T04:04:13.745Z,99503.30
2023-04-14T04:04:37.280Z,99503.42
2023-04-14T04:05:00.815Z,99505.56
2023-04-14T04:05:24.477Z,99506.35
2023-04-14T04:05:47.491Z,99508.18
2023-04-14T04:06:11.922Z,99503.78
2023-04-14T04:06:37.284Z,99505.25
2023-04-14T04:07:00.627Z,99506.71
2023-04-14T04:07:25.770Z,99504.79
2023-04-14T04:07:52.166Z,99508.36
2023-04-14T04:08:15.474Z,99507.83
2023-04-14T04:08:39.170Z,99505.84
2023-04-14T04:09:02.463Z,99505.73
2023-04-14T04:09:26.754Z,99509.67
2023-04-14T04:09:50.078Z,99507.31
2023-04-14T04:10:13.395Z,99508.90
2023-04-14T04:10:37.062Z,99508.82
2023-04-14T04:11:00.753Z,99510.12
2023-04-14T04:11:23.959Z,99509.31
2023-04-14T04:11:49.783Z,99506.45
2023-04-14T04:12:16.539Z,99510.02
2023-04-14T04:12:41.826Z,99508.81
2023-04-14T04:13:13.211Z,99512.41
2023-04-14T04:13:37.131Z,99509.55
2023-04-14T04:14:02.184Z,99508.41
2023-04-14T04:14:27.959Z,99511.70
2023-04-14T04:14:52.330Z,99510.81
2023-04-14T04:15:16.555Z,99510.15
2023-04-14T04:15:40.185Z,99508.66
2023-04-14T04:16:03.701Z,99509.46
2023-04-14T04:16:27.124Z,99514.01
2023-04-14T04:16:50.237Z,99510.11
2023-04-14T04:17:14.046Z,99511.67
2023-04-14T04:17:37.378Z,99514.44
2023-04-14T04:18:01.162Z,99512.66
2023-04-14T04:18:25.236Z,99512.76
2023-04-14T04:18:49.267Z,99514.88
2023-04-14T04:19:14.439Z,99513.81
2023-04-14T04:19:40.618Z,99514.80
2023-04-14T04:20:07.368Z,99513.19
2023-04-14T04:20:31.171Z,99515.30
2023-04-14T04:20:55.881Z,99514.17
2023-04-14T04:21:19.513Z,99515.33
2023-04-14T04:21:42.684Z,99513.86
2023-04-14T04:22:06.073Z,99514.52
2023-04-14T04:22:29.165Z,99515.14
2023-04-14T04:22:52.890Z,99518.25
2023-04-14T04:23:17.872Z,99515.27
2023-04-14T04:23:41.566Z,99515.83
2023-04-14T04:24:06.828Z,99513.78
2023-04-14T04:24:31.782Z,99515.84
2023-04-14T04:24:54.999Z,99515.42
2023-04-14T04:25:22.415Z,99518.91
2023-04-14T04:26:02.534Z,99514.75
2023-04-14T04:26:39.013Z,99514.46
2023-04-14T04:27:02.124Z,99517.30
2023-04-14T04:27:28.727Z,99515.61
2023-04-14T04:27:59.095Z,99516.11
2023-04-14T04:28:22.317Z,99516.13
2023-04-14T04:28:46.378Z,99515.19
2023-04-14T04:29:09.873Z,99518.30
2023-04-14T04:29:33.386Z,99520.17
2023-04-14T04:29:57.331Z,99517.27
2023-04-14T04:30:21.059Z,99518.08
2023-04-14T04:30:44.675Z,99518.34
2023-04-14T04:31:08.401Z,99515.50
2023-04-14T04:31:35.577Z,99518.56
2023-04-14T04:31:59.703Z,99519.19
2023-04-14T04:32:23.931Z,99518.36
2023-04-14T04:32:47.542Z,99516.11
2023-04-14T04:33:10.792Z,99518.70
2023-04-14T04:33:33.957Z,99517.67
2023-04-14T04:33:58.485Z,99517.83
2023-04-14T04:34:26.204Z,99520.29
2023-04-14T04:34:51.774Z,99520.09
2023-04-14T04:35:14.984Z,99518.08
2023-04-14T04:35:39.126Z,99520.02
2023-04-14T04:36:02.851Z,99520.85
2023-04-14T04:36:31.802Z,99522.48
2023-04-14T04:36:56.140Z,99522.30
2023-04-14T04:37:19.661Z,99521.88
2023-04-14T04:37:43.714Z,99520.45
2023-04-14T04:38:08.446Z,99523.69
2023-04-14T04:38:31.672Z,99524.64
2023-04-14T04:38:55.081Z,99525.60
2023-04-14T04:39:18.300Z,99523.58
2023-04-14T04:39:41.339Z,99526.55
2023-04-14T04:40:05.266Z,99526.93
2023-04-14T04:40:28.664Z,99526.33
2023-04-14T04:40:57.299Z,99527.69
2023-04-14T04:41:25.762Z,99527.81
2023-04-14T04:41:52.132Z,99526.77
2023-04-14T04:42:16.714Z,99526.42
2023-04-14T04:42:43.466Z,99524.33
2023-04-14T04:43:09.639Z,99530.40
2023-04-14T04:43:33.417Z,99529.77
2023-04-14T04:43:57.083Z,99529.69
2023-04-14T04:44:20.945Z,99533.14
2023-04-14T04:44:44.316Z,99530.77
2023-04-14T04:45:07.979Z,99532.38
2023-04-14T04:45:36.712Z,99526.48
2023-04-14T04:46:18.887Z,99533.45
2023-04-14T04:46:55.060Z,99535.77
2023-04-14T04:47:21.681Z,99533.34
2023-04-14T04:47:44.986Z,99537.80
2023-04-14T04:48:09.062Z,99537.20
2023-04-14T04:48:32.832Z,99535.66
2023-04-14T04:48:56.049Z,99531.33
2023-04-14T04:49:22.436Z,99534.52
2023-04-14T04:49:46.264Z,99532.80
2023-04-14T04:50:10.302Z,99532.48
2023-04-14T04:50:33.733Z,99537.92
2023-04-14T04:50:56.835Z,99532.54
2023-04-14T04:51:20.053Z,99535.84
2023-04-14T04:51:43.686Z,99532.60
2023-04-14T04:52:06.938Z,99538.17
2023-04-14T04:52:30.927Z,99533.90
2023-04-14T04:52:53.937Z,99535.60
2023-04-14T04:53:21.567Z,99531.67
2023-04-14T04:53:49.169Z,99538.26
2023-04-14T04:54:14.740Z,99538.60
2023-04-14T04:54:39.184Z,99538.64
2023-04-14T04:55:02.943Z,99538.80
2023-04-14T04:55:26.431Z,99538.84
2023-04-14T04:55:49.438Z,99536.31
2023-04-14T04:56:13.169Z,99541.77
2023-04-14T04:56:36.497Z,99542.73
2023-04-14T04:57:00.147Z,99541.27
2023-04-14T04:57:23.248Z,99540.59
2023-04-14T04:57:46.443Z,99538.89
2023-04-14T04:58:09.665Z,99541.45
2023-04-14T04:58:32.833Z,99542.16
2023-04-14T04:58:55.783Z,99544.01
2023-04-14T04:59:19.112Z,99544.52